createdAt,value
2018-03-22T00:01:00.880Z,55.64
2018-03-22T00:02:07.684Z,55.68
2018-03-22T00:03:14.419Z,55.67
2018-03-22T00:04:21.181Z,55.71
2018-03-22T00:05:27.938Z,55.74
2018-03-22T00:06:34.707Z,55.81
2018-03-22T00:07:41.486Z,55.88
2018-03-22T00:08:48.278Z,55.87
2018-03-22T00:09:55.082Z,55.98
2018-03-22T00:11:01.934Z,56.12
2018-03-22T00:12:08.785Z,56.24
2018-03-22T00:13:15.565Z,56.34
2018-03-22T00:14:22.428Z,56.36
2018-03-22T00:15:29.168Z,56.44
2018-03-22T00:16:35.926Z,56.47
2018-03-22T00:17:42.676Z,56.44
2018-03-22T00:18:49.477Z,56.46
2018-03-22T00:19:56.250Z,56.45
2018-03-22T00:21:03.025Z,56.45
2018-03-22T00:22:09.784Z,56.50
2018-03-22T00:23:16.706Z,56.57
2018-03-22T00:24:23.448Z,56.65
2018-03-22T00:25:30.205Z,56.74
2018-03-22T00:26:36.945Z,56.77
2018-03-22T00:27:43.765Z,56.78
2018-03-22T00:28:50.504Z,56.79
2018-03-22T00:29:57.309Z,56.84
2018-03-22T00:31:04.048Z,56.94
2018-03-22T00:32:10.798Z,57.08
2018-03-22T00:33:17.670Z,57.14
2018-03-22T00:34:24.433Z,57.11
2018-03-22T00:35:31.228Z,57.13
2018-03-22T00:36:37.984Z,57.16
2018-03-22T00:37:44.812Z,57.30
2018-03-22T00:38:51.683Z,57.40
2018-03-22T00:39:58.433Z,57.47
2018-03-22T00:41:05.378Z,57.47
2018-03-22T00:42:12.169Z,57.58
2018-03-22T00:43:19.024Z,57.75
2018-03-22T00:44:25.771Z,57.92
2018-03-22T00:45:32.632Z,58.10
2018-03-22T00:46:39.397Z,58.27
2018-03-22T00:47:46.273Z,58.35
2018-03-22T00:48:53.041Z,58.42
2018-03-22T00:49:59.872Z,58.47
2018-03-22T00:51:06.620Z,58.56
2018-03-22T00:52:13.508Z,58.69
2018-03-22T00:53:20.257Z,58.83
2018-03-22T00:54:27.088Z,58.95
2018-03-22T00:55:33.917Z,59.09
2018-03-22T00:56:40.645Z,59.16
2018-03-22T00:57:47.388Z,59.18
2018-03-22T00:58:54.101Z,59.23
2018-03-22T01:00:00.840Z,59.35
2018-03-22T01:01:07.849Z,59.35
2018-03-22T01:02:14.916Z,59.38
2018-03-22T01:03:21.802Z,59.50
2018-03-22T01:04:28.532Z,59.58
2018-03-22T01:05:35.359Z,59.63
2018-03-22T01:06:42.112Z,59.72
2018-03-22T01:07:48.878Z,59.75
2018-03-22T01:08:55.613Z,59.77
2018-03-22T01:10:02.340Z,59.82
2018-03-22T01:11:09.162Z,59.86
2018-03-22T01:12:15.911Z,59.89
2018-03-22T01:13:22.664Z,59.99
2018-03-22T01:14:29.382Z,60.05
2018-03-22T01:15:36.119Z,59.98
2018-03-22T01:16:42.866Z,59.97
2018-03-22T01:17:49.648Z,60.11
2018-03-22T01:18:56.377Z,60.19
2018-03-22T01:20:03.113Z,60.28
2018-03-22T01:21:09.901Z,60.29
2018-03-22T01:22:16.657Z,60.30
2018-03-22T01:23:23.492Z,60.29
2018-03-22T01:24:30.216Z,60.32
2018-03-22T01:25:36.974Z,60.44
2018-03-22T01:26:43.828Z,60.53
2018-03-22T01:27:50.680Z,60.61
2018-03-22T01:28:57.419Z,60.64
2018-03-22T01:30:04.174Z,60.73
2018-03-22T01:31:11.021Z,60.86
2018-03-22T01:32:17.865Z,60.98
2018-03-22T01:33:24.597Z,61.08
2018-03-22T01:34:31.332Z,61.14
2018-03-22T01:35:38.093Z,61.17
2018-03-22T01:36:45.030Z,61.19
2018-03-22T01:37:51.783Z,61.19
2018-03-22T01:38:58.557Z,61.25
2018-03-22T01:40:05.280Z,61.24
2018-03-22T01:41:12.172Z,61.28
2018-03-22T01:42:18.886Z,61.43
2018-03-22T01:43:25.628Z,61.53
2018-03-22T01:44:32.384Z,61.51
2018-03-22T01:45:39.084Z,61.66
2018-03-22T01:46:45.854Z,61.65
2018-03-22T01:47:52.656Z,61.73
2018-03-22T01:48:59.401Z,61.81
2018-03-22T01:50:06.140Z,61.83
2018-03-22T01:51:12.869Z,61.87
2018-03-22T01:52:19.614Z,61.94
2018-03-22T01:53:26.471Z,62.03
2018-03-22T01:54:33.222Z,62.09
2018-03-22T01:55:39.961Z,62.14
2018-03-22T01:56:46.696Z,62.14
2018-03-22T01:57:53.429Z,62.15
2018-03-22T01:59:00.276Z,62.21
2018-03-22T02:00:06.992Z,62.32
2018-03-22T02:01:13.758Z,62.47
2018-03-22T02:02:20.480Z,62.54
2018-03-22T02:03:27.237Z,62.60
2018-03-22T02:04:34.104Z,62.69
2018-03-22T02:05:40.976Z,62.76
2018-03-22T02:06:47.713Z,62.82
2018-03-22T02:07:54.440Z,62.78
2018-03-22T02:09:01.313Z,62.70
2018-03-22T02:10:08.015Z,62.72
2018-03-22T02:11:15.551Z,62.74
2018-03-22T02:12:21.796Z,62.68
2018-03-22T02:13:28.565Z,62.75
2018-03-22T02:14:35.333Z,62.80
2018-03-22T02:15:42.068Z,62.86
2018-03-22T02:16:48.781Z,62.94
2018-03-22T02:17:55.498Z,62.86
2018-03-22T02:19:02.346Z,62.83
2018-03-22T02:20:09.085Z,62.83
2018-03-22T02:21:15.832Z,62.82
2018-03-22T02:22:22.556Z,62.84
2018-03-22T02:23:29.294Z,62.87
2018-03-22T02:24:36.019Z,62.98
2018-03-22T02:25:42.823Z,62.99
2018-03-22T02:26:49.550Z,62.98
2018-03-22T02:27:56.277Z,63.02
2018-03-22T02:29:03.116Z,63.06
2018-03-22T02:30:09.828Z,63.13
2018-03-22T02:31:16.685Z,63.11
2018-03-22T02:32:23.416Z,63.09
2018-03-22T02:33:30.163Z,63.04
2018-03-22T02:34:36.929Z,63.09
2018-03-22T02:35:43.644Z,63.17
2018-03-22T02:36:50.394Z,63.21
2018-03-22T02:37:57.284Z,63.32
2018-03-22T02:39:03.988Z,63.36
2018-03-22T02:40:10.741Z,63.34
2018-03-22T02:41:17.560Z,63.43
2018-03-22T02:42:24.377Z,63.47
2018-03-22T02:43:31.096Z,63.46
2018-03-22T02:44:37.939Z,63.54
2018-03-22T02:45:44.682Z,63.59
2018-03-22T02:46:51.465Z,63.58
2018-03-22T02:47:58.285Z,63.60
2018-03-22T02:49:05.113Z,63.65
2018-03-22T02:50:11.867Z,63.64
2018-03-22T02:51:18.730Z,63.71
2018-03-22T02:52:25.509Z,63.82
2018-03-22T02:53:32.313Z,63.91
2018-03-22T02:54:39.057Z,64.00
2018-03-22T02:55:45.893Z,64.03
2018-03-22T02:56:52.702Z,64.12
2018-03-22T02:57:59.568Z,64.18
2018-03-22T02:59:06.397Z,64.22
2018-03-22T03:00:13.136Z,64.30
2018-03-22T03:01:19.894Z,64.40
2018-03-22T03:02:26.621Z,64.45
2018-03-22T03:03:33.357Z,64.52
2018-03-22T03:04:40.073Z,64.58
2018-03-22T03:05:46.900Z,64.59
2018-03-22T03:06:53.616Z,64.55
2018-03-22T03:08:00.432Z,64.63
2018-03-22T03:09:07.233Z,64.64
2018-03-22T03:10:14.077Z,64.58
2018-03-22T03:11:20.812Z,64.66
2018-03-22T03:12:27.663Z,64.69
2018-03-22T03:13:34.395Z,64.70
2018-03-22T03:14:41.184Z,64.74
2018-03-22T03:15:47.931Z,64.77
2018-03-22T03:16:54.644Z,64.82
2018-03-22T03:18:01.391Z,64.87
2018-03-22T03:19:08.132Z,64.99
2018-03-22T03:20:14.998Z,65.18
2018-03-22T03:21:21.729Z,65.27
2018-03-22T03:22:28.544Z,65.29
2018-03-22T03:23:35.279Z,65.38
2018-03-22T03:24:42.021Z,65.46
2018-03-22T03:25:48.845Z,65.54
2018-03-22T03:26:55.568Z,65.61
2018-03-22T03:28:02.305Z,65.64
2018-03-22T03:29:09.065Z,65.70
2018-03-22T03:30:15.796Z,65.75
2018-03-22T03:31:22.655Z,65.81
2018-03-22T03:32:29.416Z,65.83
2018-03-22T03:33:36.141Z,65.99
2018-03-22T03:34:42.889Z,66.03
2018-03-22T03:35:49.620Z,66.13
2018-03-22T03:36:56.474Z,66.17
2018-03-22T03:38:03.217Z,66.21
2018-03-22T03:39:10.358Z,66.30
2018-03-22T03:40:17.094Z,66.38
2018-03-22T03:41:23.874Z,66.39
2018-03-22T03:42:30.620Z,66.46
2018-03-22T03:43:37.465Z,66.54
2018-03-22T03:44:44.185Z,66.61
2018-03-22T03:45:50.912Z,66.59
2018-03-22T03:46:57.672Z,66.69
2018-03-22T03:48:04.396Z,66.75
2018-03-22T03:49:11.125Z,66.76
2018-03-22T03:50:17.981Z,66.81
2018-03-22T03:51:24.851Z,66.87
2018-03-22T03:52:31.703Z,66.95
2018-03-22T03:53:38.483Z,67.01
2018-03-22T03:54:45.278Z,67.12
2018-03-22T03:55:52.025Z,67.09
2018-03-22T03:56:58.847Z,67.14
2018-03-22T03:58:05.688Z,67.17
2018-03-22T03:59:12.410Z,67.23
2018-03-22T04:00:19.131Z,67.28
2018-03-22T04:01:25.917Z,67.38
2018-03-22T04:02:32.656Z,67.39
2018-03-22T04:03:39.528Z,67.40
2018-03-22T04:04:46.264Z,67.44
2018-03-22T04:05:52.997Z,67.46
2018-03-22T04:06:59.757Z,67.46
2018-03-22T04:08:06.470Z,67.50
2018-03-22T04:09:13.219Z,67.52
2018-03-22T04:10:20.044Z,67.50
2018-03-22T04:11:26.756Z,67.52
2018-03-22T04:12:33.524Z,67.65
2018-03-22T04:13:40.252Z,67.75
2018-03-22T04:14:47.007Z,67.79
2018-03-22T04:15:53.712Z,67.86
2018-03-22T04:17:00.580Z,67.94
2018-03-22T04:18:07.313Z,67.96
2018-03-22T04:19:14.016Z,68.05
2018-03-22T04:20:20.761Z,68.11
2018-03-22T04:21:27.473Z,68.09
2018-03-22T04:22:34.244Z,68.06
2018-03-22T04:23:41.066Z,68.17
2018-03-22T04:24:47.811Z,68.27
2018-03-22T04:25:54.557Z,68.36
2018-03-22T04:27:01.384Z,68.37
2018-03-22T04:28:08.273Z,68.39
2018-03-22T04:29:15.102Z,68.35
2018-03-22T04:30:21.835Z,68.32
2018-03-22T04:31:28.560Z,68.44
2018-03-22T04:32:35.408Z,68.56
2018-03-22T04:33:42.166Z,68.61
2018-03-22T04:34:48.914Z,68.62
2018-03-22T04:35:55.657Z,68.60
2018-03-22T04:37:02.428Z,68.58
2018-03-22T04:38:09.264Z,68.71
2018-03-22T04:39:16.128Z,68.76
2018-03-22T04:40:22.976Z,68.80
2018-03-22T04:41:29.976Z,68.86
2018-03-22T04:42:36.698Z,68.92
2018-03-22T04:43:43.613Z,69.01
2018-03-22T04:44:50.334Z,69.08
2018-03-22T04:45:57.183Z,69.14
2018-03-22T04:47:03.941Z,69.24
2018-03-22T04:48:10.760Z,69.29
2018-03-22T04:49:17.500Z,69.32
2018-03-22T04:50:24.236Z,69.33
2018-03-22T04:51:30.997Z,69.34
2018-03-22T04:52:37.781Z,69.38
2018-03-22T04:53:44.597Z,69.44
2018-03-22T04:54:51.396Z,69.47
2018-03-22T04:55:58.134Z,69.51
2018-03-22T04:57:04.848Z,69.59
2018-03-22T04:58:11.577Z,69.67
2018-03-22T04:59:18.416Z,69.69
2018-03-22T05:00:25.144Z,69.68
2018-03-22T05:01:31.914Z,69.71
2018-03-22T05:02:38.729Z,69.79
2018-03-22T05:03:45.569Z,69.81
2018-03-22T05:04:52.289Z,69.88
2018-03-22T05:05:59.128Z,69.92
2018-03-22T05:07:05.856Z,69.96
2018-03-22T05:08:12.589Z,70.00
2018-03-22T05:09:19.388Z,70.04
2018-03-22T05:10:26.156Z,70.04
2018-03-22T05:11:32.897Z,70.03
2018-03-22T05:12:39.620Z,70.08
2018-03-22T05:13:46.329Z,70.14
2018-03-22T05:14:53.040Z,70.15
2018-03-22T05:15:59.898Z,70.18
2018-03-22T05:17:06.628Z,70.19
2018-03-22T05:18:13.386Z,70.23
2018-03-22T05:19:20.117Z,70.29
2018-03-22T05:20:26.873Z,70.35
2018-03-22T05:21:33.720Z,70.34
2018-03-22T05:22:40.436Z,70.41
2018-03-22T05:23:47.180Z,70.47
2018-03-22T05:24:53.919Z,70.49
2018-03-22T05:26:00.663Z,70.55
2018-03-22T05:27:07.504Z,70.57
2018-03-22T05:28:14.213Z,70.61
2018-03-22T05:29:20.949Z,70.64
2018-03-22T05:30:27.717Z,70.68
2018-03-22T05:31:34.544Z,70.69
2018-03-22T05:32:41.360Z,70.69
2018-03-22T05:33:48.173Z,70.76
2018-03-22T05:34:54.948Z,70.74
2018-03-22T05:36:01.664Z,70.73
2018-03-22T05:37:08.542Z,70.74
2018-03-22T05:38:15.308Z,70.78
2018-03-22T05:39:22.017Z,70.81
2018-03-22T05:40:28.815Z,70.88
2018-03-22T05:41:35.661Z,70.91
2018-03-22T05:42:42.419Z,70.97
2018-03-22T05:43:49.332Z,70.99
2018-03-22T05:44:56.128Z,71.00
2018-03-22T05:46:02.879Z,71.00
2018-03-22T05:47:09.616Z,71.03
2018-03-22T05:48:16.361Z,71.07
2018-03-22T05:49:23.097Z,71.14
2018-03-22T05:50:30.030Z,71.20
2018-03-22T05:51:36.768Z,71.19
2018-03-22T05:52:43.552Z,71.23
2018-03-22T05:53:50.385Z,71.25
2018-03-22T05:54:57.137Z,71.28
2018-03-22T05:56:03.912Z,71.34
2018-03-22T05:57:10.645Z,71.48
2018-03-22T05:58:17.528Z,71.56
2018-03-22T05:59:24.276Z,71.57
2018-03-22T06:00:31.018Z,71.59
2018-03-22T06:01:37.798Z,71.57
2018-03-22T06:02:44.678Z,71.62
2018-03-22T06:03:51.480Z,71.60
2018-03-22T06:04:58.220Z,71.62
2018-03-22T06:06:05.061Z,71.67
2018-03-22T06:07:11.788Z,71.68
2018-03-22T06:08:18.624Z,71.72
2018-03-22T06:09:25.367Z,71.79
2018-03-22T06:10:32.188Z,71.85
2018-03-22T06:11:38.920Z,71.91
2018-03-22T06:12:45.660Z,71.98
2018-03-22T06:13:52.458Z,72.03
2018-03-22T06:14:59.308Z,72.08
2018-03-22T06:16:06.037Z,72.11
2018-03-22T06:17:12.796Z,72.14
2018-03-22T06:18:19.524Z,72.21
2018-03-22T06:19:26.288Z,72.27
2018-03-22T06:20:33.229Z,72.27
2018-03-22T06:21:39.961Z,72.35
2018-03-22T06:22:46.722Z,72.40
2018-03-22T06:23:53.459Z,72.49
2018-03-22T06:25:00.293Z,72.50
2018-03-22T06:26:06.997Z,72.56
2018-03-22T06:27:13.701Z,72.61
2018-03-22T06:28:20.413Z,72.69
2018-03-22T06:29:27.136Z,72.71
2018-03-22T06:30:33.838Z,72.75
2018-03-22T06:31:40.517Z,72.83
2018-03-22T06:32:47.742Z,72.86
2018-03-22T06:33:54.559Z,72.93
2018-03-22T06:35:01.268Z,73.01
2018-03-22T06:36:08.057Z,73.04
2018-03-22T06:37:14.776Z,73.09
2018-03-22T06:38:21.468Z,73.13
2018-03-22T06:39:28.213Z,73.15
2018-03-22T06:40:35.025Z,73.24
2018-03-22T06:41:41.716Z,73.31
2018-03-22T06:42:48.413Z,73.38
2018-03-22T06:43:55.122Z,73.43
2018-03-22T06:45:01.822Z,73.48
2018-03-22T06:46:08.668Z,73.49
2018-03-22T06:47:15.355Z,73.62
2018-03-22T06:48:22.055Z,73.65
2018-03-22T06:49:28.858Z,73.67
2018-03-22T06:50:35.542Z,73.72
2018-03-22T06:51:42.287Z,73.76
2018-03-22T06:52:49.045Z,73.88
2018-03-22T06:53:55.772Z,73.92
2018-03-22T06:55:02.473Z,73.98
2018-03-22T06:56:09.324Z,73.98
2018-03-22T06:57:16.054Z,74.02
2018-03-22T06:58:22.776Z,74.09
2018-03-22T06:59:29.494Z,74.11
2018-03-22T07:00:36.201Z,74.19
2018-03-22T07:01:42.912Z,74.26
2018-03-22T07:02:49.597Z,74.29
2018-03-22T07:03:56.277Z,74.34
2018-03-22T07:05:02.964Z,74.37
2018-03-22T07:06:09.752Z,74.42
2018-03-22T07:07:16.469Z,74.47
2018-03-22T07:08:23.203Z,74.49
2018-03-22T07:09:29.882Z,74.53
2018-03-22T07:10:36.580Z,74.53
2018-03-22T07:11:43.328Z,74.57
2018-03-22T07:12:50.057Z,74.60
2018-03-22T07:13:56.744Z,74.78
2018-03-22T07:15:03.576Z,74.80
2018-03-22T07:16:10.320Z,74.87
2018-03-22T07:17:17.048Z,74.95
2018-03-22T07:18:23.760Z,74.98
2018-03-22T07:19:30.440Z,75.06
2018-03-22T07:20:37.161Z,75.11
2018-03-22T07:21:43.852Z,75.22
2018-03-22T07:22:50.564Z,75.26
2018-03-22T07:23:57.335Z,75.28
2018-03-22T07:25:04.057Z,75.33
2018-03-22T07:26:10.772Z,75.37
2018-03-22T07:27:17.471Z,75.45
2018-03-22T07:28:24.282Z,75.51
2018-03-22T07:29:30.978Z,75.56
2018-03-22T07:30:38.201Z,75.61
2018-03-22T07:31:44.840Z,75.66
2018-03-22T07:32:51.704Z,75.78
2018-03-22T07:33:58.378Z,75.88
2018-03-22T07:35:05.169Z,75.92
2018-03-22T07:36:11.880Z,76.04
2018-03-22T07:37:18.700Z,76.05
2018-03-22T07:38:25.421Z,76.12
2018-03-22T07:39:32.200Z,76.16
2018-03-22T07:40:38.898Z,76.26
2018-03-22T07:41:45.592Z,76.27
2018-03-22T07:42:52.298Z,76.38
2018-03-22T07:43:59.165Z,76.48
2018-03-22T07:45:05.910Z,76.54
2018-03-22T07:46:12.821Z,76.64
2018-03-22T07:47:19.629Z,76.73
2018-03-22T07:48:26.360Z,76.76
2018-03-22T07:49:33.044Z,76.87
2018-03-22T07:50:39.752Z,76.98
2018-03-22T07:51:46.712Z,77.02
2018-03-22T07:52:53.589Z,77.07
2018-03-22T07:54:00.447Z,77.17
2018-03-22T07:55:08.133Z,77.26
2018-03-22T07:56:15.106Z,77.34
2018-03-22T07:57:21.112Z,77.48
2018-03-22T07:58:28.849Z,77.54
2018-03-22T07:59:35.178Z,77.64
2018-03-22T08:00:41.952Z,77.76
2018-03-22T08:01:48.960Z,77.81
2018-03-22T08:02:55.713Z,77.90
2018-03-22T08:04:02.872Z,77.98
2018-03-22T08:05:09.707Z,78.02
2018-03-22T08:06:16.756Z,78.13
2018-03-22T08:07:23.759Z,78.15
2018-03-22T08:08:30.816Z,78.21
2018-03-22T08:09:37.762Z,78.29
2018-03-22T08:10:44.467Z,78.36
2018-03-22T08:11:51.289Z,78.45
2018-03-22T08:12:58.013Z,78.50
2018-03-22T08:14:05.176Z,78.54
2018-03-22T08:15:12.393Z,78.60
2018-03-22T08:16:19.428Z,78.67
2018-03-22T08:17:26.383Z,78.73
2018-03-22T08:18:33.228Z,78.74
2018-03-22T08:19:39.949Z,78.81
2018-03-22T08:20:46.629Z,78.81
2018-03-22T08:21:53.316Z,78.90
2018-03-22T08:23:00.041Z,79.01
2018-03-22T08:24:06.803Z,79.06
2018-03-22T08:25:13.687Z,79.07
2018-03-22T08:26:20.401Z,79.11
2018-03-22T08:27:27.093Z,79.20
2018-03-22T08:28:34.810Z,79.22
2018-03-22T08:29:40.543Z,79.24
2018-03-22T08:30:47.312Z,79.33
2018-03-22T08:31:53.997Z,79.37
2018-03-22T08:33:00.793Z,79.40
2018-03-22T08:34:07.464Z,79.45
2018-03-22T08:35:14.165Z,79.51
2018-03-22T08:36:20.905Z,79.55
2018-03-22T08:37:27.584Z,79.57
2018-03-22T08:38:34.390Z,79.58
2018-03-22T08:39:41.142Z,79.62
2018-03-22T08:40:47.900Z,79.69
2018-03-22T08:41:54.644Z,79.74
2018-03-22T08:43:01.440Z,79.77
2018-03-22T08:44:08.131Z,79.83
2018-03-22T08:45:14.857Z,79.89
2018-03-22T08:46:21.628Z,79.91
2018-03-22T08:47:28.800Z,79.90
2018-03-22T08:48:35.485Z,80.00
2018-03-22T08:49:42.193Z,80.00
2018-03-22T08:50:48.925Z,80.03
2018-03-22T08:51:55.761Z,80.06
2018-03-22T08:53:02.830Z,80.13
2018-03-22T08:54:09.357Z,80.14
2018-03-22T08:55:16.112Z,80.23
2018-03-22T08:56:23.072Z,80.26
2018-03-22T08:57:29.768Z,80.27
2018-03-22T08:58:36.484Z,80.29
2018-03-22T08:59:43.764Z,80.34
2018-03-22T09:00:50.244Z,80.33
2018-03-22T09:01:56.937Z,80.39
2018-03-22T09:03:03.685Z,80.39
2018-03-22T09:04:10.373Z,80.43
2018-03-22T09:05:17.099Z,80.44
2018-03-22T09:06:24.014Z,80.54
2018-03-22T09:07:30.772Z,80.58
2018-03-22T09:08:37.501Z,80.58
2018-03-22T09:09:44.391Z,80.61
2018-03-22T09:10:51.078Z,80.67
2018-03-22T09:11:57.857Z,80.66
2018-03-22T09:13:04.560Z,80.73
2018-03-22T09:14:11.250Z,80.80
2018-03-22T09:15:18.068Z,80.84
2018-03-22T09:16:24.825Z,80.86
2018-03-22T09:17:31.564Z,80.92
2018-03-22T09:18:38.261Z,80.93
2018-03-22T09:19:44.968Z,80.99
2018-03-22T09:20:51.672Z,81.05
2018-03-22T09:21:58.515Z,81.09
2018-03-22T09:23:05.645Z,81.12
2018-03-22T09:24:12.322Z,81.17
2018-03-22T09:25:19.065Z,81.19
2018-03-22T09:26:25.844Z,81.24
2018-03-22T09:27:32.569Z,81.31
2018-03-22T09:28:39.437Z,81.35
2018-03-22T09:29:46.188Z,81.43
2018-03-22T09:30:52.988Z,81.46
2018-03-22T09:31:59.893Z,81.49
2018-03-22T09:33:06.633Z,81.56
2018-03-22T09:34:13.380Z,81.60
2018-03-22T09:35:20.153Z,81.61
2018-03-22T09:36:27.028Z,81.69
2018-03-22T09:37:33.760Z,81.68
2018-03-22T09:38:40.524Z,81.74
2018-03-22T09:39:47.265Z,81.75
2018-03-22T09:40:53.993Z,81.76
2018-03-22T09:42:00.817Z,81.86
2018-03-22T09:43:07.645Z,81.88
2018-03-22T09:44:14.417Z,81.89
2018-03-22T09:45:21.284Z,81.92
2018-03-22T09:46:28.058Z,81.98
2018-03-22T09:47:34.867Z,82.01
2018-03-22T09:48:41.720Z,82.07
2018-03-22T09:49:48.477Z,82.07
2018-03-22T09:50:55.397Z,82.07
2018-03-22T09:52:02.210Z,82.12
2018-03-22T09:53:09.053Z,82.16
2018-03-22T09:54:15.878Z,82.17
2018-03-22T09:55:22.657Z,82.20
2018-03-22T09:56:29.468Z,82.21
2018-03-22T09:57:36.253Z,82.27
2018-03-22T09:58:42.964Z,82.28
2018-03-22T09:59:49.808Z,82.31
2018-03-22T10:00:56.541Z,82.34
2018-03-22T10:02:03.264Z,82.36
2018-03-22T10:03:10.021Z,82.40
2018-03-22T10:04:16.746Z,82.43
2018-03-22T10:05:23.487Z,82.46
2018-03-22T10:06:30.314Z,82.51
2018-03-22T10:07:37.118Z,82.58
2018-03-22T10:08:43.889Z,82.59
2018-03-22T10:09:50.617Z,82.62
2018-03-22T10:10:57.487Z,82.64
2018-03-22T10:12:04.273Z,82.71
2018-03-22T10:13:11.038Z,82.71
2018-03-22T10:14:17.937Z,82.74
2018-03-22T10:15:24.687Z,82.78
2018-03-22T10:16:31.439Z,82.85
2018-03-22T10:17:38.185Z,82.88
2018-03-22T10:18:45.069Z,82.91
2018-03-22T10:19:51.869Z,82.94
2018-03-22T10:20:58.615Z,83.01
2018-03-22T10:22:05.514Z,83.03
2018-03-22T10:23:12.286Z,83.04
2018-03-22T10:24:19.073Z,83.08
2018-03-22T10:25:25.785Z,83.09
2018-03-22T10:26:32.468Z,83.13
2018-03-22T10:27:39.140Z,83.14
2018-03-22T10:28:45.964Z,83.17
2018-03-22T10:29:52.640Z,83.20
2018-03-22T10:30:59.454Z,83.26
2018-03-22T10:32:06.176Z,83.28
2018-03-22T10:33:12.912Z,83.35
2018-03-22T10:34:19.657Z,83.36
2018-03-22T10:35:26.401Z,83.38
2018-03-22T10:36:33.115Z,83.45
2018-03-22T10:37:39.864Z,83.45
2018-03-22T10:38:46.548Z,83.49
2018-03-22T10:39:53.316Z,83.50
2018-03-22T10:41:00.000Z,83.57
2018-03-22T10:42:06.818Z,83.64
2018-03-22T10:43:13.489Z,83.69
2018-03-22T10:44:20.178Z,83.74
2018-03-22T10:45:26.908Z,83.79
2018-03-22T10:46:33.596Z,83.81
2018-03-22T10:47:40.392Z,83.86
2018-03-22T10:48:47.068Z,83.90
2018-03-22T10:49:53.761Z,83.91
2018-03-22T10:51:00.585Z,83.97
2018-03-22T10:52:07.296Z,83.99
2018-03-22T10:53:14.046Z,83.98
2018-03-22T10:54:20.761Z,84.04
2018-03-22T10:55:27.488Z,84.07
2018-03-22T10:56:34.176Z,84.12
2018-03-22T10:57:40.945Z,84.15
2018-03-22T10:58:47.732Z,84.16
2018-03-22T10:59:54.512Z,84.19
2018-03-22T11:01:01.237Z,84.24
2018-03-22T11:02:08.067Z,84.24
2018-03-22T11:03:14.801Z,84.29
2018-03-22T11:04:21.590Z,84.36
2018-03-22T11:05:28.337Z,84.42
2018-03-22T11:06:35.042Z,84.40
2018-03-22T11:07:41.736Z,84.47
2018-03-22T11:08:48.617Z,84.56
2018-03-22T11:09:55.317Z,84.56
2018-03-22T11:11:02.029Z,84.56
2018-03-22T11:12:08.869Z,84.58
2018-03-22T11:13:15.636Z,84.63
2018-03-22T11:14:22.325Z,84.66
2018-03-22T11:15:29.028Z,84.70
2018-03-22T11:16:36.119Z,84.75
2018-03-22T11:17:42.821Z,84.79
2018-03-22T11:18:49.549Z,84.81
2018-03-22T11:19:56.233Z,84.87
2018-03-22T11:21:02.949Z,84.91
2018-03-22T11:22:09.658Z,84.97
2018-03-22T11:23:16.516Z,85.01
2018-03-22T11:24:23.244Z,85.05
2018-03-22T11:25:30.006Z,85.06
2018-03-22T11:26:36.889Z,85.07
2018-03-22T11:27:43.657Z,85.11
2018-03-22T11:28:50.464Z,85.13
2018-03-22T11:29:57.233Z,85.13
2018-03-22T11:31:03.984Z,85.18
2018-03-22T11:32:10.809Z,85.22
2018-03-22T11:33:17.568Z,85.22
2018-03-22T11:34:24.369Z,85.23
2018-03-22T11:35:31.141Z,85.26
2018-03-22T11:36:37.953Z,85.27
2018-03-22T11:37:44.704Z,85.26
2018-03-22T11:38:51.472Z,85.31
2018-03-22T11:39:58.227Z,85.31
2018-03-22T11:41:05.096Z,85.35
2018-03-22T11:42:11.836Z,85.41
2018-03-22T11:43:18.796Z,85.45
2018-03-22T11:44:25.581Z,85.41
2018-03-22T11:45:32.304Z,85.43
2018-03-22T11:46:39.044Z,85.49
2018-03-22T11:47:45.869Z,85.48
2018-03-22T11:48:52.733Z,85.54
2018-03-22T11:49:59.453Z,85.52
2018-03-22T11:51:06.212Z,85.54
2018-03-22T11:52:13.001Z,85.60
2018-03-22T11:53:19.868Z,85.61
2018-03-22T11:54:26.605Z,85.65
2018-03-22T11:55:33.371Z,85.69
2018-03-22T11:56:40.120Z,85.69
2018-03-22T11:57:46.853Z,85.77
2018-03-22T11:58:53.668Z,85.80
2018-03-22T12:00:00.406Z,85.82
2018-03-22T12:01:07.321Z,85.82
2018-03-22T12:02:14.169Z,85.87
2018-03-22T12:03:20.944Z,85.92
2018-03-22T12:04:27.673Z,85.94
2018-03-22T12:05:34.709Z,85.95
2018-03-22T12:06:41.457Z,85.97
2018-03-22T12:07:48.206Z,85.97
2018-03-22T12:08:54.971Z,85.98
2018-03-22T12:10:01.805Z,85.99
2018-03-22T12:11:08.571Z,86.01
2018-03-22T12:12:15.309Z,86.05
2018-03-22T12:13:22.138Z,86.08
2018-03-22T12:14:28.959Z,86.11
2018-03-22T12:15:35.701Z,86.15
2018-03-22T12:16:42.459Z,86.18
2018-03-22T12:17:49.193Z,86.24
2018-03-22T12:18:56.032Z,86.29
2018-03-22T12:20:02.801Z,86.31
2018-03-22T12:21:09.596Z,86.36
2018-03-22T12:22:16.463Z,86.38
2018-03-22T12:23:23.203Z,86.45
2018-03-22T12:24:30.023Z,86.48
2018-03-22T12:25:36.693Z,86.51
2018-03-22T12:26:43.590Z,86.53
2018-03-22T12:27:50.368Z,86.55
2018-03-22T12:28:57.096Z,86.60
2018-03-22T12:30:03.794Z,86.62
2018-03-22T12:31:10.585Z,86.68
2018-03-22T12:32:17.295Z,86.69
2018-03-22T12:33:23.992Z,86.73
2018-03-22T12:34:30.705Z,86.70
2018-03-22T12:35:37.474Z,86.71
2018-03-22T12:36:44.262Z,86.73
2018-03-22T12:37:50.953Z,86.72
2018-03-22T12:38:57.628Z,86.75
2018-03-22T12:40:04.826Z,86.77
2018-03-22T12:41:11.532Z,86.94
2018-03-22T12:42:18.266Z,86.95
2018-03-22T12:43:25.027Z,86.91
2018-03-22T12:44:31.681Z,86.92
2018-03-22T12:45:38.444Z,86.89
2018-03-22T12:46:45.136Z,86.93
2018-03-22T12:47:51.849Z,86.91
2018-03-22T12:48:58.613Z,86.91
2018-03-22T12:50:05.349Z,86.94
2018-03-22T12:51:12.069Z,86.95
2018-03-22T12:52:18.841Z,86.94
2018-03-22T12:53:25.563Z,86.96
2018-03-22T12:54:32.322Z,86.97
2018-03-22T12:55:39.170Z,86.99
2018-03-22T12:56:45.987Z,86.99
2018-03-22T12:57:52.694Z,87.01
2018-03-22T12:58:59.425Z,86.99
2018-03-22T13:00:06.233Z,87.01
2018-03-22T13:01:12.932Z,87.00
2018-03-22T13:02:19.697Z,87.00
2018-03-22T13:03:26.382Z,86.99
2018-03-22T13:04:33.085Z,86.96
2018-03-22T13:05:39.808Z,86.99
2018-03-22T13:06:46.529Z,87.00
2018-03-22T13:07:53.221Z,87.03
2018-03-22T13:08:59.925Z,87.06
2018-03-22T13:10:06.767Z,87.12
2018-03-22T13:11:13.468Z,87.12
2018-03-22T13:12:20.185Z,87.15
2018-03-22T13:13:26.878Z,87.19
2018-03-22T13:14:33.605Z,87.21
2018-03-22T13:15:40.319Z,87.25
2018-03-22T13:16:47.000Z,87.26
2018-03-22T13:17:53.681Z,87.31
2018-03-22T13:19:00.483Z,87.36
2018-03-22T13:20:07.174Z,87.36
2018-03-22T13:21:13.908Z,87.41
2018-03-22T13:22:20.640Z,87.48
2018-03-22T13:23:27.681Z,87.47
2018-03-22T13:24:34.385Z,87.52
2018-03-22T13:25:41.189Z,87.51
2018-03-22T13:26:47.943Z,87.50
2018-03-22T13:27:54.724Z,87.49
2018-03-22T13:29:01.453Z,87.48
2018-03-22T13:30:08.541Z,87.46
2018-03-22T13:31:14.886Z,87.43
2018-03-22T13:32:21.656Z,87.41
2018-03-22T13:33:28.503Z,87.41
2018-03-22T13:34:35.329Z,87.40
2018-03-22T13:35:42.077Z,87.36
2018-03-22T13:36:49.149Z,87.33
2018-03-22T13:37:55.905Z,87.35
2018-03-22T13:39:02.785Z,87.38
2018-03-22T13:40:09.589Z,87.39
2018-03-22T13:41:16.354Z,87.36
2018-03-22T13:42:23.208Z,87.33
2018-03-22T13:43:30.334Z,87.31
2018-03-22T13:44:37.090Z,87.30
2018-03-22T13:45:43.873Z,87.28
2018-03-22T13:46:50.784Z,87.25
2018-03-22T13:47:57.528Z,87.20
2018-03-22T13:49:04.285Z,87.16
2018-03-22T13:50:11.028Z,87.13
2018-03-22T13:51:17.862Z,87.10
2018-03-22T13:52:24.621Z,87.06
2018-03-22T13:53:31.464Z,87.06
2018-03-22T13:54:38.311Z,87.04
2018-03-22T13:55:45.045Z,87.01
2018-03-22T13:56:51.788Z,86.99
2018-03-22T13:57:58.566Z,86.94
2018-03-22T13:59:05.412Z,86.93
2018-03-22T14:00:12.209Z,86.89
2018-03-22T14:01:18.945Z,86.85
2018-03-22T14:02:25.681Z,86.82
2018-03-22T14:03:32.614Z,86.81
2018-03-22T14:04:39.384Z,86.81
2018-03-22T14:05:46.126Z,86.80
2018-03-22T14:06:52.981Z,86.81
2018-03-22T14:07:59.719Z,86.80
2018-03-22T14:09:06.472Z,86.82
2018-03-22T14:10:13.245Z,86.79
2018-03-22T14:11:20.103Z,86.81
2018-03-22T14:12:26.849Z,86.77
2018-03-22T14:13:33.604Z,86.79
2018-03-22T14:14:40.581Z,86.80
2018-03-22T14:15:47.320Z,86.82
2018-03-22T14:16:54.093Z,86.83
2018-03-22T14:18:00.828Z,86.83
2018-03-22T14:19:07.703Z,86.84
2018-03-22T14:20:14.480Z,86.82